Terminal Aerodrome Forecast
Issued by NWS

Home | Current Version | Previous Version | Text Only | Print | Product List | Glossary On
Versions: 1 2 3 4 5 6 7 8 9 10 11 12 13 14 15 16 17 18 19 20 21 22 23
000
FTUS43 KDLH 230520
TAFHYR
TAF
KHYR 230520Z 2306/2406 00000KT P6SM BKN200
     FM230800 00000KT 4SM BR BKN250
      TEMPO 2310/2312 1/2SM FG SCT005
     FM231300 12004KT P6SM SCT250
     FM232300 15006KT P6SM VCSH BKN025 PROB30 2323/2405 5SM TSRA
      BKN015CB=

USA.gov is the U.S. government's official web portal to all federal, state and local government web resources and services.